createdAt,value
2022-09-26T00:01:36.411Z,100929.59
2022-09-26T00:04:08.417Z,100924.41
2022-09-26T00:06:35.986Z,100916.59
2022-09-26T00:09:03.565Z,100909.75
2022-09-26T00:11:34.261Z,100908.91
2022-09-26T00:14:06.063Z,100900.28
2022-09-26T00:16:33.899Z,100898.63
2022-09-26T00:19:02.250Z,100872.69
2022-09-26T00:21:30.522Z,100889.97
2022-09-26T00:24:00.965Z,100880.47
2022-09-26T00:26:31.237Z,100864.09
2022-09-26T00:28:59.603Z,100864.00
2022-09-26T00:31:35.334Z,100860.53
2022-09-26T00:34:03.524Z,100848.47
2022-09-26T00:36:38.004Z,100850.13
2022-09-26T00:39:10.052Z,100839.72
2022-09-26T00:41:38.146Z,100835.41
2022-09-26T00:44:34.900Z,100827.56
2022-09-26T00:47:03.249Z,100821.47
2022-09-26T00:49:37.545Z,100818.88
2022-09-26T00:52:11.682Z,100816.31
2022-09-26T00:54:45.067Z,100805.88
2022-09-26T00:57:20.524Z,100794.53
2022-09-26T00:59:54.423Z,100785.00
2022-09-26T01:02:24.956Z,100778.88
2022-09-26T01:04:53.508Z,100770.13
2022-09-26T01:07:25.350Z,100767.50
2022-09-26T01:09:54.137Z,100755.34
2022-09-26T01:12:22.331Z,100752.75
2022-09-26T01:14:54.909Z,100747.47
2022-09-26T01:17:24.110Z,100731.97
2022-09-26T01:20:16.249Z,100738.88
2022-09-26T01:23:14.557Z,100736.25
2022-09-26T01:26:01.023Z,100737.16
2022-09-26T01:28:43.390Z,100730.19
2022-09-26T01:31:11.919Z,100715.56
2022-09-26T01:34:02.993Z,100721.53
2022-09-26T01:37:04.157Z,100711.13
2022-09-26T01:39:57.407Z,100697.19
2022-09-26T01:42:47.876Z,100697.19
2022-09-26T01:45:20.634Z,100695.44
2022-09-26T01:47:56.725Z,100685.91
2022-09-26T01:50:44.682Z,100686.78
2022-09-26T01:53:30.307Z,100683.34
2022-09-26T01:56:03.953Z,100674.63
2022-09-26T01:58:45.826Z,100673.75
2022-09-26T02:01:16.478Z,100667.72
2022-09-26T02:03:51.372Z,100662.53
2022-09-26T02:06:29.506Z,100666.03
2022-09-26T02:09:02.496Z,100650.53
2022-09-26T02:11:31.016Z,100641.81
2022-09-26T02:14:14.635Z,100638.44
2022-09-26T02:16:50.775Z,100636.78
2022-09-26T02:19:28.942Z,100639.47
2022-09-26T02:21:58.645Z,100625.69
2022-09-26T02:24:26.390Z,100617.06
2022-09-26T02:26:54.857Z,100621.34
2022-09-26T02:29:22.550Z,100611.91
2022-09-26T02:31:57.573Z,100616.22
2022-09-26T02:34:26.493Z,100614.56
2022-09-26T02:36:57.322Z,100605.88
2022-09-26T02:39:25.786Z,100607.63
2022-09-26T02:42:22.213Z,100595.50
2022-09-26T02:45:15.705Z,100598.97
2022-09-26T02:48:01.501Z,100579.13
2022-09-26T02:51:07.032Z,100569.59
2022-09-26T02:53:34.422Z,100565.31
2022-09-26T02:56:10.591Z,100556.59
2022-09-26T02:59:05.843Z,100567.91
2022-09-26T03:01:56.507Z,100552.31
2022-09-26T03:04:56.001Z,100541.91
2022-09-26T03:07:41.022Z,100544.47
2022-09-26T03:10:10.946Z,100538.38
2022-09-26T03:12:39.351Z,100537.50
2022-09-26T03:15:10.380Z,100528.81
2022-09-26T03:17:42.618Z,100518.47
2022-09-26T03:20:15.698Z,100509.78
2022-09-26T03:22:44.469Z,100512.41
2022-09-26T03:25:16.723Z,100503.69
2022-09-26T03:27:44.659Z,100508.03
2022-09-26T03:30:15.010Z,100499.41
2022-09-26T03:32:42.583Z,100488.97
2022-09-26T03:35:11.340Z,100491.53
2022-09-26T03:37:38.995Z,100482.03
2022-09-26T03:40:09.420Z,100475.06
2022-09-26T03:42:37.532Z,100465.53
2022-09-26T03:45:08.603Z,100467.28
2022-09-26T03:47:37.034Z,100459.47
2022-09-26T03:50:05.588Z,100454.31
2022-09-26T03:52:33.062Z,100443.00
2022-09-26T03:55:00.609Z,100441.22
2022-09-26T03:57:28.150Z,100429.13
2022-09-26T03:59:56.038Z,100416.94
2022-09-26T04:02:23.573Z,100420.41
2022-09-26T04:04:51.058Z,100411.75
2022-09-26T04:07:18.557Z,100401.31
2022-09-26T04:09:46.021Z,100401.31
2022-09-26T04:12:13.506Z,100384.78
2022-09-26T04:14:43.381Z,100368.31
2022-09-26T04:17:11.173Z,100379.56
2022-09-26T04:19:38.623Z,100366.47
2022-09-26T04:22:08.222Z,100363.03
2022-09-26T04:24:35.645Z,100350.88
2022-09-26T04:27:03.286Z,100351.72
2022-09-26T04:29:30.757Z,100342.19
2022-09-26T04:31:58.317Z,100343.00
2022-09-26T04:34:27.412Z,100340.38
2022-09-26T04:36:55.240Z,100328.25
2022-09-26T04:39:23.106Z,100331.78
2022-09-26T04:41:52.390Z,100319.59
2022-09-26T04:44:19.926Z,100314.50
2022-09-26T04:46:48.009Z,100318.03
2022-09-26T04:49:15.573Z,100298.09
2022-09-26T04:51:43.195Z,100304.22
2022-09-26T04:54:10.648Z,100300.84
2022-09-26T04:56:38.129Z,100292.16
2022-09-26T04:59:05.572Z,100285.25
2022-09-26T05:01:33.198Z,100269.59
2022-09-26T05:04:00.780Z,100269.66
2022-09-26T05:06:28.453Z,100251.50
2022-09-26T05:08:56.273Z,100256.75
2022-09-26T05:11:24.475Z,100245.56
2022-09-26T05:13:53.894Z,100257.78
2022-09-26T05:16:22.729Z,100261.31
2022-09-26T05:18:54.774Z,100254.41
2022-09-26T05:21:22.329Z,100257.81
2022-09-26T05:24:07.083Z,100254.38
2022-09-26T05:26:44.452Z,100252.69
2022-09-26T05:29:12.844Z,100250.97
2022-09-26T05:31:40.983Z,100242.22
2022-09-26T05:34:15.479Z,100234.47
2022-09-26T05:36:46.344Z,100231.88
2022-09-26T05:39:30.128Z,100211.91
2022-09-26T05:41:59.482Z,100218.00
2022-09-26T05:44:27.578Z,100217.88
2022-09-26T05:46:57.228Z,100210.16
2022-09-26T05:49:25.162Z,100193.72
2022-09-26T05:51:53.770Z,100215.41
2022-09-26T05:54:21.445Z,100194.56
2022-09-26T05:56:49.083Z,100197.13
2022-09-26T05:59:16.708Z,100188.44
2022-09-26T06:01:44.315Z,100174.56
2022-09-26T06:04:12.100Z,100172.78
2022-09-26T06:06:39.756Z,100167.50
2022-09-26T06:09:08.045Z,100157.88
2022-09-26T06:11:35.561Z,100153.53
2022-09-26T06:14:03.119Z,100153.44
2022-09-26T06:16:30.898Z,100141.28
2022-09-26T06:18:58.636Z,100143.00
2022-09-26T06:21:26.236Z,100123.88
2022-09-26T06:23:53.710Z,100128.28
2022-09-26T06:26:26.966Z,100122.97
2022-09-26T06:28:58.219Z,100113.50
2022-09-26T06:31:26.206Z,100113.38
2022-09-26T06:33:55.224Z,100095.25
2022-09-26T06:36:25.085Z,100101.22
2022-09-26T06:38:54.938Z,100082.94
2022-09-26T06:41:22.583Z,100083.78
2022-09-26T06:43:50.223Z,100078.59
2022-09-26T06:46:18.030Z,100075.81
2022-09-26T06:48:45.542Z,100071.47
2022-09-26T06:51:13.924Z,100064.53
2022-09-26T06:53:42.603Z,100068.84
2022-09-26T06:56:10.136Z,100064.47
2022-09-26T06:58:40.851Z,100049.78
2022-09-26T07:01:08.591Z,100046.16
2022-09-26T07:03:38.625Z,100042.66
2022-09-26T07:06:09.156Z,100034.75
2022-09-26T07:09:00.850Z,100027.91
2022-09-26T07:14:17.267Z,100035.75
2022-09-26T07:16:45.299Z,100030.47
2022-09-26T07:19:13.501Z,100006.25
2022-09-26T07:21:41.508Z,100032.31
2022-09-26T07:24:13.954Z,100023.56
2022-09-26T07:26:42.602Z,100022.72
2022-09-26T07:29:12.335Z,100020.06
2022-09-26T07:31:40.017Z,100012.13
2022-09-26T07:34:08.614Z,100015.69
2022-09-26T07:36:36.234Z,100019.97
2022-09-26T07:39:03.711Z,100020.72
2022-09-26T07:41:31.484Z,100026.03
2022-09-26T07:47:04.968Z,100010.31
2022-09-26T07:49:49.991Z,99998.03
2022-09-26T07:52:18.475Z,100010.09
2022-09-26T07:54:45.971Z,100006.38
2022-09-26T07:57:14.859Z,99997.75
2022-09-26T07:59:42.354Z,99994.03
2022-09-26T08:02:29.182Z,99976.84
2022-09-26T08:05:00.933Z,99969.69
2022-09-26T08:07:29.205Z,99961.69
2022-09-26T08:09:58.728Z,99966.78
2022-09-26T08:12:27.883Z,99967.44
2022-09-26T08:14:55.875Z,99955.31
2022-09-26T08:17:23.385Z,99958.97
2022-09-26T08:19:51.078Z,99953.50
2022-09-26T08:22:18.588Z,99955.69
2022-09-26T08:24:50.601Z,99959.34
2022-09-26T08:27:19.263Z,99947.53
2022-09-26T08:29:48.474Z,99957.84
2022-09-26T08:32:21.212Z,99959.78
2022-09-26T08:34:51.820Z,99952.88
2022-09-26T08:37:20.999Z,99952.94
2022-09-26T08:39:49.035Z,99945.44
2022-09-26T08:42:23.936Z,99942.69
2022-09-26T08:45:36.151Z,99934.94
2022-09-26T08:48:15.056Z,99953.03
2022-09-26T08:50:48.857Z,99940.97
2022-09-26T08:53:46.690Z,99933.03
2022-09-26T08:56:22.077Z,99931.31
2022-09-26T08:58:54.058Z,99929.06
2022-09-26T09:01:28.948Z,99929.06
2022-09-26T09:04:08.643Z,99920.41
2022-09-26T09:06:37.101Z,99927.41
2022-09-26T09:09:04.722Z,99917.22
2022-09-26T09:11:53.433Z,99915.28
2022-09-26T09:14:39.647Z,99924.66
2022-09-26T09:17:10.442Z,99907.56
2022-09-26T09:19:48.740Z,99917.00
2022-09-26T09:22:38.421Z,99901.31
2022-09-26T09:25:17.715Z,99890.94
2022-09-26T09:28:02.582Z,99890.75
2022-09-26T09:30:40.442Z,99888.16
2022-09-26T09:33:34.926Z,99887.28
2022-09-26T09:36:02.525Z,99877.44
2022-09-26T09:38:33.123Z,99877.59
2022-09-26T09:41:24.104Z,99874.06
2022-09-26T09:43:57.872Z,99875.72
2022-09-26T09:46:39.537Z,99874.81
2022-09-26T09:49:09.922Z,99866.97
2022-09-26T09:51:48.114Z,99871.09
2022-09-26T09:54:15.820Z,99871.09
2022-09-26T09:56:58.284Z,99869.00
2022-09-26T09:59:45.971Z,99867.44
2022-09-26T10:02:21.010Z,99863.69
2022-09-26T10:05:00.830Z,99862.06
2022-09-26T10:07:28.375Z,99855.16
2022-09-26T10:09:56.944Z,99854.25
2022-09-26T10:12:30.763Z,99851.66
2022-09-26T10:15:05.229Z,99852.34
2022-09-26T10:17:32.860Z,99844.66
2022-09-26T10:20:00.686Z,99849.69
2022-09-26T10:22:37.413Z,99848.16
2022-09-26T10:25:20.185Z,99851.75
2022-09-26T10:27:50.157Z,99858.59
2022-09-26T10:30:20.731Z,99843.94
2022-09-26T10:32:56.108Z,99843.94
2022-09-26T10:35:26.404Z,99845.50
2022-09-26T10:37:56.650Z,99844.78
2022-09-26T10:40:48.310Z,99823.97
2022-09-26T10:43:28.825Z,99837.56
2022-09-26T10:46:18.584Z,99836.28
2022-09-26T10:48:57.264Z,99817.53
2022-09-26T10:51:32.250Z,99848.47
2022-09-26T10:54:05.686Z,99837.81
2022-09-26T10:56:39.881Z,99833.59
2022-09-26T10:59:10.992Z,99837.81
2022-09-26T11:01:44.083Z,99837.56
2022-09-26T11:04:36.135Z,99836.72
2022-09-26T11:07:05.849Z,99843.88
2022-09-26T11:09:33.527Z,99837.69
2022-09-26T11:12:23.815Z,99829.09
2022-09-26T11:14:56.883Z,99832.63
2022-09-26T11:18:00.404Z,99828.84
2022-09-26T11:20:32.345Z,99824.63
2022-09-26T11:23:31.333Z,99818.69
2022-09-26T11:26:15.194Z,99818.34
2022-09-26T11:28:45.175Z,99808.00
2022-09-26T11:31:25.680Z,99813.25
2022-09-26T11:33:54.182Z,99804.53
2022-09-26T11:36:36.001Z,99800.94
2022-09-26T11:39:26.607Z,99807.66
2022-09-26T11:42:05.248Z,99813.06
2022-09-26T11:45:04.174Z,99804.19
2022-09-26T11:48:08.939Z,99806.94
2022-09-26T11:51:31.515Z,99804.19
2022-09-26T11:54:23.566Z,99815.28
2022-09-26T11:57:12.601Z,99798.78
2022-09-26T12:00:02.768Z,99807.56
2022-09-26T12:02:54.226Z,99813.47
2022-09-26T12:05:39.799Z,99797.09
2022-09-26T12:08:29.401Z,99800.53
2022-09-26T12:11:06.973Z,99794.38
2022-09-26T12:13:45.297Z,99802.78
2022-09-26T12:16:32.930Z,99790.00
2022-09-26T12:19:28.164Z,99779.69
2022-09-26T12:22:49.290Z,99770.75
2022-09-26T12:25:37.193Z,99775.81
2022-09-26T12:28:20.404Z,99768.78
2022-09-26T12:31:05.230Z,99769.38
2022-09-26T12:33:59.259Z,99772.91
2022-09-26T12:36:47.334Z,99764.44
2022-09-26T12:39:39.694Z,99755.72
2022-09-26T12:42:16.337Z,99766.13
2022-09-26T12:45:21.998Z,99745.47
2022-09-26T12:48:01.353Z,99757.69
2022-09-26T12:50:54.473Z,99763.69
2022-09-26T12:53:53.263Z,99762.84
2022-09-26T12:56:39.252Z,99747.09
2022-09-26T12:59:15.921Z,99746.06
2022-09-26T13:01:50.091Z,99752.88
2022-09-26T13:04:48.763Z,99749.38
2022-09-26T13:07:43.874Z,99730.13
2022-09-26T13:10:11.511Z,99737.91
2022-09-26T13:13:04.025Z,99737.78
2022-09-26T13:16:00.290Z,99739.56
2022-09-26T13:18:44.762Z,99750.16
2022-09-26T13:21:22.054Z,99733.28
2022-09-26T13:23:59.739Z,99716.84
2022-09-26T13:26:32.004Z,99712.28
2022-09-26T13:29:17.063Z,99701.41
2022-09-26T13:31:58.747Z,99704.28
2022-09-26T13:34:42.847Z,99715.34
2022-09-26T13:37:28.866Z,99711.56
2022-09-26T13:40:16.313Z,99718.16
2022-09-26T13:43:00.747Z,99703.59
2022-09-26T13:45:56.198Z,99698.38
2022-09-26T13:48:51.850Z,99688.41
2022-09-26T13:51:30.342Z,99704.28
2022-09-26T13:54:16.720Z,99682.72
2022-09-26T13:56:47.517Z,99671.34
2022-09-26T13:59:15.564Z,99675.78
2022-09-26T14:02:18.843Z,99676.22
2022-09-26T14:04:48.181Z,99670.56
2022-09-26T14:08:02.447Z,99672.91
2022-09-26T14:10:34.692Z,99666.19
2022-09-26T14:13:03.281Z,99663.88
2022-09-26T14:16:01.289Z,99663.97
2022-09-26T14:18:48.224Z,99657.34
2022-09-26T14:21:29.061Z,99659.94
2022-09-26T14:24:35.787Z,99663.34
2022-09-26T14:27:12.563Z,99668.56
2022-09-26T14:29:40.034Z,99646.19
2022-09-26T14:32:10.619Z,99648.59
2022-09-26T14:34:57.314Z,99659.31
2022-09-26T14:37:24.878Z,99665.47
2022-09-26T14:40:01.577Z,99673.38
2022-09-26T14:42:34.653Z,99674.34
2022-09-26T14:45:21.255Z,99661.66
2022-09-26T14:48:16.287Z,99675.50
2022-09-26T14:50:57.313Z,99671.41
2022-09-26T14:53:54.050Z,99676.41
2022-09-26T14:56:29.211Z,99664.50
2022-09-26T14:59:40.015Z,99664.38
2022-09-26T15:02:26.029Z,99650.44
2022-09-26T15:05:06.769Z,99647.13
2022-09-26T15:07:47.029Z,99648.84
2022-09-26T15:10:14.637Z,99649.53
2022-09-26T15:12:58.252Z,99653.75
2022-09-26T15:15:37.556Z,99647.53
2022-09-26T15:18:25.010Z,99641.28
2022-09-26T15:21:04.218Z,99649.06
2022-09-26T15:23:45.414Z,99653.31
2022-09-26T15:26:13.454Z,99641.19
2022-09-26T15:28:41.082Z,99645.50
2022-09-26T15:31:27.005Z,99645.97
2022-09-26T15:34:02.786Z,99652.47
2022-09-26T15:36:36.518Z,99617.53
2022-09-26T15:39:30.388Z,99645.44
2022-09-26T15:42:20.268Z,99639.25
2022-09-26T15:44:54.679Z,99634.84
2022-09-26T15:47:43.077Z,99626.34
2022-09-26T15:50:17.302Z,99629.19
2022-09-26T15:52:50.505Z,99627.28
2022-09-26T15:55:28.235Z,99609.63
2022-09-26T15:58:00.061Z,99606.72
2022-09-26T16:00:33.090Z,99606.72
2022-09-26T16:03:40.961Z,99602.06
2022-09-26T16:06:21.019Z,99609.91
2022-09-26T16:08:53.309Z,99613.44
2022-09-26T16:11:21.213Z,99609.97
2022-09-26T16:13:51.296Z,99608.41
2022-09-26T16:16:24.499Z,99604.13
2022-09-26T16:19:02.947Z,99608.69
2022-09-26T16:21:34.032Z,99601.81
2022-09-26T16:24:23.334Z,99599.31
2022-09-26T16:26:53.435Z,99601.03
2022-09-26T16:29:36.196Z,99602.09
2022-09-26T16:32:06.767Z,99596.34
2022-09-26T16:34:34.380Z,99602.63
2022-09-26T16:37:01.914Z,99603.78
2022-09-26T16:39:32.417Z,99598.75
2022-09-26T16:42:03.395Z,99605.63
2022-09-26T16:44:40.340Z,99603.09
2022-09-26T16:47:29.808Z,99614.53
2022-09-26T16:49:57.409Z,99616.22
2022-09-26T16:52:36.370Z,99605.13
2022-09-26T16:55:06.969Z,99619.81
2022-09-26T16:57:38.229Z,99606.13
2022-09-26T17:00:32.755Z,99617.41
2022-09-26T17:03:00.324Z,99611.56
2022-09-26T17:05:27.858Z,99602.13
2022-09-26T17:07:55.313Z,99604.81
2022-09-26T17:10:26.292Z,99608.28
2022-09-26T17:12:54.129Z,99607.66
2022-09-26T17:15:29.248Z,99608.59
2022-09-26T17:17:57.705Z,99608.69
2022-09-26T17:20:26.914Z,99610.59
2022-09-26T17:22:54.735Z,99600.34
2022-09-26T17:25:25.124Z,99617.81
2022-09-26T17:27:57.565Z,99612.69
2022-09-26T17:30:25.125Z,99616.34
2022-09-26T17:32:54.406Z,99625.19
2022-09-26T17:35:32.258Z,99616.75
2022-09-26T17:38:00.799Z,99606.63
2022-09-26T17:40:33.524Z,99624.97
2022-09-26T17:43:01.963Z,99632.03
2022-09-26T17:45:35.519Z,99621.69
2022-09-26T17:48:06.603Z,99622.56
2022-09-26T17:50:35.727Z,99621.03
2022-09-26T17:53:04.090Z,99619.41
2022-09-26T17:55:32.357Z,99632.47
2022-09-26T17:58:00.325Z,99629.81
2022-09-26T18:00:33.059Z,99635.22
2022-09-26T18:03:04.297Z,99649.13
2022-09-26T18:05:35.499Z,99641.34
2022-09-26T18:08:16.208Z,99644.19
2022-09-26T18:10:50.156Z,99631.19
2022-09-26T18:13:25.068Z,99636.44
2022-09-26T18:15:58.613Z,99627.09
2022-09-26T18:18:29.209Z,99633.97
2022-09-26T18:20:58.720Z,99632.38
2022-09-26T18:23:29.741Z,99637.66
2022-09-26T18:25:59.315Z,99632.66
2022-09-26T18:28:27.259Z,99636.16
2022-09-26T18:30:59.135Z,99637.06
2022-09-26T18:33:28.849Z,99644.00
2022-09-26T18:35:56.518Z,99655.25
2022-09-26T18:38:24.091Z,99653.38
2022-09-26T18:40:58.278Z,99639.56
2022-09-26T18:43:29.458Z,99652.41
2022-09-26T18:45:57.580Z,99639.28
2022-09-26T18:48:32.664Z,99647.91
2022-09-26T18:51:01.159Z,99657.44
2022-09-26T18:53:34.773Z,99660.03
2022-09-26T18:56:20.211Z,99659.25
2022-09-26T18:58:48.404Z,99672.25
2022-09-26T19:01:34.096Z,99680.19
2022-09-26T19:04:05.702Z,99681.03
2022-09-26T19:06:37.456Z,99681.13
2022-09-26T19:09:13.825Z,99690.63
2022-09-26T19:11:41.431Z,99686.31
2022-09-26T19:14:16.248Z,99707.16
2022-09-26T19:16:48.952Z,99691.59
2022-09-26T19:19:17.475Z,99708.13
2022-09-26T19:21:48.626Z,99716.94
2022-09-26T19:24:22.538Z,99725.53
2022-09-26T19:26:54.156Z,99720.63
2022-09-26T19:29:41.990Z,99718.25
2022-09-26T19:32:21.130Z,99716.63
2022-09-26T19:35:02.278Z,99720.16
2022-09-26T19:37:29.894Z,99720.34
2022-09-26T19:39:58.409Z,99720.53
2022-09-26T19:42:27.182Z,99730.97
2022-09-26T19:44:56.038Z,99732.03
2022-09-26T19:47:24.592Z,99733.91
2022-09-26T19:49:53.545Z,99728.88
2022-09-26T19:52:22.086Z,99731.66
2022-09-26T19:54:50.153Z,99743.84
2022-09-26T19:57:20.062Z,99739.63
2022-09-26T19:59:48.432Z,99733.72
2022-09-26T20:02:21.648Z,99746.75
2022-09-26T20:04:49.552Z,99738.91
2022-09-26T20:07:19.599Z,99751.00
2022-09-26T20:09:48.166Z,99747.56
2022-09-26T20:12:15.891Z,99731.94
2022-09-26T20:14:43.442Z,99737.06
2022-09-26T20:17:13.911Z,99736.19
2022-09-26T20:19:45.834Z,99732.72
2022-09-26T20:22:17.311Z,99737.03
2022-09-26T20:24:48.102Z,99735.25
2022-09-26T20:27:19.687Z,99727.53
2022-09-26T20:30:06.283Z,99734.28
2022-09-26T20:32:34.404Z,99736.00
2022-09-26T20:35:02.201Z,99728.19
2022-09-26T20:37:32.647Z,99742.94
2022-09-26T20:40:01.682Z,99729.94
2022-09-26T20:42:36.370Z,99729.94
2022-09-26T20:45:04.102Z,99730.78
2022-09-26T20:47:32.138Z,99730.72
2022-09-26T20:50:02.116Z,99726.38
2022-09-26T20:52:30.965Z,99723.84
2022-09-26T20:54:58.534Z,99725.63
2022-09-26T20:57:26.086Z,99727.34
2022-09-26T20:59:53.550Z,99718.75
2022-09-26T21:02:36.921Z,99717.03
2022-09-26T21:05:12.157Z,99716.13
2022-09-26T21:07:39.631Z,99722.97
2022-09-26T21:10:26.645Z,99717.81
2022-09-26T21:12:54.546Z,99712.66
2022-09-26T21:15:23.651Z,99717.84
2022-09-26T21:17:52.858Z,99717.03
2022-09-26T21:20:32.187Z,99717.91
2022-09-26T21:23:02.319Z,99721.41
2022-09-26T21:25:32.277Z,99711.13
2022-09-26T21:28:02.976Z,99727.53
2022-09-26T21:30:31.510Z,99731.84
2022-09-26T21:33:00.763Z,99718.13
2022-09-26T21:35:33.177Z,99719.81
2022-09-26T21:38:01.922Z,99714.75
2022-09-26T21:40:32.500Z,99728.56
2022-09-26T21:43:06.903Z,99714.72
2022-09-26T21:45:34.735Z,99717.41
2022-09-26T21:48:02.344Z,99711.34
2022-09-26T21:50:30.282Z,99708.81
2022-09-26T21:53:04.331Z,99714.00
2022-09-26T21:55:35.619Z,99714.00
2022-09-26T21:58:09.100Z,99712.34
2022-09-26T22:00:36.559Z,99713.25
2022-09-26T22:03:04.074Z,99716.66
2022-09-26T22:05:31.979Z,99712.41
2022-09-26T22:07:59.690Z,99711.66
2022-09-26T22:10:27.979Z,99698.88
2022-09-26T22:12:55.442Z,99703.75
2022-09-26T22:15:22.990Z,99709.03
2022-09-26T22:17:50.601Z,99699.59
2022-09-26T22:20:18.371Z,99709.97
2022-09-26T22:22:45.838Z,99707.38
2022-09-26T22:25:13.326Z,99714.31
2022-09-26T22:27:41.267Z,99704.84
2022-09-26T22:30:09.747Z,99713.56
2022-09-26T22:32:37.233Z,99695.41
2022-09-26T22:35:05.671Z,99697.03
2022-09-26T22:37:33.714Z,99696.19
2022-09-26T22:40:01.180Z,99694.56
2022-09-26T22:42:28.630Z,99692.81
2022-09-26T22:44:56.058Z,99698.94
2022-09-26T22:47:23.570Z,99696.41
2022-09-26T22:49:51.617Z,99704.16
2022-09-26T22:52:19.082Z,99711.06
2022-09-26T22:54:46.606Z,99703.41
2022-09-26T22:57:14.075Z,99703.41
2022-09-26T22:59:41.596Z,99700.00
2022-09-26T23:02:09.275Z,99713.78
2022-09-26T23:04:48.592Z,99714.63
2022-09-26T23:07:18.594Z,99703.50
2022-09-26T23:09:46.106Z,99707.00
2022-09-26T23:12:14.146Z,99715.56
2022-09-26T23:14:41.704Z,99717.34
2022-09-26T23:17:09.362Z,99712.25
2022-09-26T23:19:37.258Z,99718.28
2022-09-26T23:22:05.249Z,99720.88
2022-09-26T23:24:32.782Z,99724.28
2022-09-26T23:27:00.913Z,99731.19
2022-09-26T23:29:28.390Z,99724.16
2022-09-26T23:31:56.011Z,99719.81
2022-09-26T23:34:23.479Z,99722.38
2022-09-26T23:36:50.935Z,99716.28
2022-09-26T23:39:18.882Z,99710.22
2022-09-26T23:41:46.493Z,99711.94
2022-09-26T23:44:13.941Z,99707.59
2022-09-26T23:46:41.540Z,99709.38
2022-09-26T23:49:09.077Z,99719.75
2022-09-26T23:51:36.538Z,99717.22
2022-09-26T23:54:04.030Z,99720.63
2022-09-26T23:56:31.497Z,99717.13
2022-09-26T23:58:58.970Z,99724.03
